Flight Track Log - Related Links

Times and Time Zones

All times are in EDT time to prevent confusion due to time zone crossing. See the ASQ4623 flight status page for this flight to view local times or setup timezone preferences in your user account.


Time Position Orientation Groundspeed Altitude Reporting Facility
EDT Latitude Longitude Course Direction KTS MPH feet Rate Location/Type
Thu 08:58:48 AM 41.3981 -81.8681 159° South 140 161 1,800  Level Cleveland Center
Thu 08:59:00 AM 41.3911 -81.8753 218° Southwest 136 157 2,700 3,000 Climbing Cleveland Center
Thu 08:59:12 AM 41.3861 -81.8772 196° South 121 139 3,000 973 Climbing Cleveland Center
Thu 09:00:14 AM 41.3325 -81.8647 170° South 198 228 3,900 1,742 Climbing Cleveland Center
Thu 09:01:00 AM 41.2311 -81.4777 118° Southeast  Level FlightAware Approximate
Thu 09:01:16 AM 41.2842 -81.8000 135° Southeast 263 303 6,600  Level Cleveland Center
Thu 09:02:00 AM 41.1739 -81.3542 127° Southeast  Level FlightAware Approximate
Thu 09:02:18 AM 41.2556 -81.7022 111° Southeast 288 331 9,100  Level Cleveland Center
Thu 09:03:00 AM 41.1134 -81.2335 118° Southeast  Level FlightAware Approximate
Thu 09:03:20 AM 41.2203 -81.5828 111° Southeast 301 346 11,400  Level Cleveland Center
Thu 09:04:00 AM 41.0226 -81.1696 159° South  Level FlightAware Approximate
Thu 09:04:22 AM 41.1897 -81.4811 112° Southeast 334 384 12,600  Level Cleveland Center
Thu 09:05:24 AM 41.1478 -81.3375 111° Southeast 360 414 14,000 1,403 Climbing Cleveland Center
Thu 09:06:26 AM 41.0931 -81.2142 120° Southeast 384 442 15,500 1,355 Climbing Cleveland Center
Thu 09:07:28 AM 40.9939 -81.1614 158° South 380 437 16,800 1,152 Climbing Cleveland Center
Thu 09:08:31 AM 40.8897 -81.1233 165° South 382 440 17,900 1,488 Climbing Cleveland Center
Thu 09:09:33 AM 40.7842 -81.0869 165° South 384 442 19,900 2,032 Climbing Cleveland Center
Thu 09:10:35 AM 40.6644 -81.0442 165° South 379 436 22,100 1,984 Climbing Cleveland Center
Thu 09:11:37 AM 40.5619 -81.0086 165° South 379 436 24,000 1,403 Climbing Cleveland Center
Thu 09:12:39 AM 40.4603 -80.9725 165° South 378 435 25,000 484 Climbing Cleveland Center
Thu 09:13:41 AM 40.3492 -80.9322 165° South 412 474 25,000  Level Cleveland Center
Thu 09:14:43 AM 40.2519 -80.8331 142° Southeast 459 528 25,000  Level Cleveland Center
Thu 09:15:45 AM 40.1536 -80.6725 129° Southeast 473 544 25,000  Level Cleveland Center
Thu 09:16:47 AM 40.0697 -80.5369 129° Southeast 481 554 25,000  Level Cleveland Center
Thu 09:17:49 AM 39.9864 -80.4028 129° Southeast 481 554 25,000  Level Cleveland Center
Thu 09:18:52 AM 39.9019 -80.2689 129° Southeast 481 554 25,000  Level Cleveland Center
Thu 09:19:54 AM 39.8192 -80.1344 129° Southeast 481 554 25,000  Level Cleveland Center
Thu 09:20:56 AM 39.7167 -79.9725 129° Southeast 483 556 25,000  Level Cleveland Center
Thu 09:21:58 AM 39.6322 -79.8400 130° Southeast 482 555 25,000  Level Cleveland Center
Thu 09:23:44 AM 39.4922 -79.6147 129° Southeast 487 560 25,000  Level Washington Center
Thu 09:24:42 AM 39.4050 -79.4808 130° Southeast 487 560 25,000  Level Washington Center
Thu 09:26:06 AM 39.2883 -79.3033 130° Southeast 485 558 25,000  Level Cleveland Center
Thu 09:26:43 AM 39.2414 -79.1828 117° Southeast 492 566 25,000  Level Washington Center
Thu 09:27:43 AM 39.2256 -79.0078 97° East 473 544 25,000 -353 Level Washington Center
Thu 09:28:42 AM 39.2094 -78.8356 97° East 473 544 24,300 -1,462 Descending Washington Center
Thu 09:29:42 AM 39.1931 -78.6714 97° East 473 544 22,100 -2,479 Descending Washington Center
Thu 09:30:43 AM 39.1781 -78.5156 97° East 455 524 19,300 -2,550 Descending Washington Center
Thu 09:31:42 AM 39.1608 -78.3622 98° East 438 504 17,000 -2,471 Descending Washington Center
Thu 09:32:42 AM 39.1283 -78.2272 107° East 415 478 14,400 -2,380 Descending Washington Center
Thu 09:33:43 AM 39.0997 -78.1058 107° East 382 440 12,200 -1,240 Descending Washington Center
Thu 09:34:43 AM 39.0708 -77.9978 109° East 346 398 11,900 -545 Descending Washington Center
Thu 09:35:44 AM 39.0436 -77.8928 108° East 320 368 11,100 -694 Descending Washington Center
Thu 09:36:44 AM 39.0225 -77.8011 106° East 297 342 10,500 -763 Descending Washington Center
Thu 09:37:42 AM 38.9931 -77.6936 109° East 292 336 9,600 -941 Descending Washington Center
Thu 09:38:26 AM 38.9667 -77.6167 114° Southeast 270 311 8,900 -918 Descending Potomac TRACON
Thu 09:39:20 AM 38.9500 -77.5500 108° East 241 277 8,100 -474 Descending Potomac TRACON
Thu 09:40:20 AM 38.9667 -77.4667 76° East 247 284 8,000 -368 Descending Potomac TRACON
Thu 09:41:14 AM 38.9833 -77.4000 72° East 203 234 7,400 -842 Descending Potomac TRACON
Thu 09:42:14 AM 39.0167 -77.3333 57° Northeast 213 245 6,400 -950 Descending Potomac TRACON
Thu 09:43:14 AM 39.0500 -77.2833 49° Northeast 195 224 5,500 -942 Descending Potomac TRACON
Thu 09:44:15 AM 39.0500 -77.2333 90° East 198 228 4,500 -1,043 Descending Potomac TRACON
Thu 09:45:09 AM 39.0000 -77.2000 153° Southeast 181 208 3,500 -842 Descending Potomac TRACON
Thu 09:46:09 AM 38.9667 -77.1500 131° Southeast 174 200 2,900 -762 Descending Potomac TRACON
Thu 09:48:10 AM 38.9000 -77.0833 142° Southeast 142 163 1,200 -796 Descending Potomac TRACON
Thu 09:49:10 AM 38.8833 -77.0500 123° Southeast 136 157 500 -700 Descending Potomac TRACON

Login

Don't have an account? Register now (free) for customized features, flight alerts, and more!